Time;durP1;ratioP1;P1;durP2;ratioP2;P2;SDS_P1;SDS_P2;PMS_P1;PMS_P2;Temp;Humidity;BMP_temperature;BMP_pressure;BME280_temperature;BME280_humidity;BME280_pressure;Samples;Min_cycle;Max_cycle;Signal;HPM_P1;HPM_P2
2021/09/25 00:02:03;;;;;;;;;5.50;5.00;;;;;15.34;82.98;99717.97;6758801;19;2735626;-54
2021/09/25 00:04:31;;;;;;;;;5.50;5.50;;;;;15.23;83.55;99715.28;6757964;19;2735610;-54
2021/09/25 00:06:59;;;;;;;;;9.00;6.00;;;;;15.22;83.49;99714.41;6757769;19;2743912;-54
2021/09/25 00:09:26;;;;;;;;;6.00;6.00;;;;;15.16;83.87;99712.19;6758579;19;2731443;-47
2021/09/25 00:11:54;;;;;;;;;4.00;4.00;;;;;15.26;83.67;99715.88;6757480;19;2739868;-45
2021/09/25 00:14:21;;;;;;;;;6.00;5.00;;;;;15.02;84.83;99724.09;6754859;19;2730398;-47
2021/09/25 00:16:49;;;;;;;;;5.00;5.00;;;;;14.83;85.77;99729.25;6756395;19;2739817;-46
2021/09/25 00:19:16;;;;;;;;;8.50;8.50;;;;;14.67;86.44;99733.16;6754545;19;2732461;-45
2021/09/25 00:21:44;;;;;;;;;7.00;5.00;;;;;14.70;86.39;99732.91;6757831;19;2739774;-44
2021/09/25 00:24:12;;;;;;;;;6.00;6.00;;;;;14.30;88.52;99723.41;6755596;19;2740818;-45
2021/09/25 00:26:40;;;;;;;;;5.00;5.00;;;;;14.17;89.28;99729.78;6757312;19;2731444;-47
2021/09/25 00:29:07;;;;;;;;;8.00;6.50;;;;;13.94;90.10;99730.66;6752231;19;2742866;-44
2021/09/25 00:31:35;;;;;;;;;6.50;6.50;;;;;14.00;89.53;99743.66;6755257;19;2743923;-47
2021/09/25 00:34:03;;;;;;;;;5.00;5.00;;;;;13.97;89.57;99741.22;6755454;19;2744985;-45
2021/09/25 00:36:30;;;;;;;;;6.50;6.50;;;;;13.82;90.29;99744.09;6753477;19;2730418;-45
2021/09/25 00:38:58;;;;;;;;;7.50;5.00;;;;;13.69;91.18;99737.88;6754536;19;2742938;-45
2021/09/25 00:41:25;;;;;;;;;6.50;6.50;;;;;13.70;91.21;99739.59;6755860;19;2741828;-46
2021/09/25 00:43:53;;;;;;;;;8.00;7.00;;;;;13.64;91.64;99734.66;6754803;19;2739864;-45
2021/09/25 00:46:22;;;;;;;;;6.00;6.00;;;;;13.57;91.81;99739.63;6751926;19;2740826;-45
2021/09/25 00:48:50;;;;;;;;;9.00;9.00;;;;;13.54;91.86;99736.28;6752749;19;2750161;-45
2021/09/25 00:51:18;;;;;;;;;6.00;6.00;;;;;13.46;92.28;99736.84;6752267;19;2737670;-47
2021/09/25 00:53:46;;;;;;;;;10.00;8.00;;;;;13.23;93.34;99735.78;6754092;19;2762665;-45
2021/09/25 00:56:13;;;;;;;;;8.50;8.00;;;;;13.04;94.84;99738.06;6751617;19;2754384;-45
2021/09/25 00:58:42;;;;;;;;;7.00;7.00;;;;;12.86;95.73;99737.53;6752542;19;2731508;-46
2021/09/25 01:01:10;;;;;;;;;7.00;7.00;;;;;12.83;96.28;99735.91;6755584;19;2737721;-48
2021/09/25 01:03:38;;;;;;;;;6.00;6.00;;;;;12.66;96.86;99737.06;6754747;19;2763699;-45
2021/09/25 01:06:05;;;;;;;;;8.00;8.00;;;;;12.77;96.68;99733.66;6753228;19;2733519;-47
2021/09/25 01:08:33;;;;;;;;;7.00;7.00;;;;;12.88;96.09;99736.47;6753640;19;2737711;-47
2021/09/25 01:11:01;;;;;;;;;8.00;8.00;;;;;12.99;95.67;99734.84;6754402;19;2732493;-46
2021/09/25 01:13:30;;;;;;;;;6.00;6.00;;;;;13.13;94.21;99740.97;6751118;19;2742976;-46
2021/09/25 01:15:57;;;;;;;;;7.50;6.00;;;;;13.60;91.95;99734.00;6754416;19;2743920;-46
2021/09/25 01:18:25;;;;;;;;;7.00;7.00;;;;;13.21;93.30;99736.84;6752299;19;2735586;-50
2021/09/25 01:21:00;;;;;;;;;8.00;6.40;;;;;13.19;93.72;99745.03;6778754;19;2743971;-49
2021/09/25 01:23:28;;;;;;;;;8.00;8.00;;;;;12.92;94.75;99739.78;6785333;19;2735624;-48
2021/09/25 01:25:55;;;;;;;;;8.50;7.00;;;;;12.80;95.26;99746.91;6753682;19;2731416;-49
2021/09/25 01:28:22;;;;;;;;;11.50;8.50;;;;;12.67;96.41;99754.13;6750073;19;2764788;-45
2021/09/25 01:30:50;;;;;;;;;7.50;7.50;;;;;12.84;95.70;99761.03;6753984;19;2735658;-45
2021/09/25 01:33:30;;;;;;;;;7.00;7.00;;;;;12.95;95.04;99762.00;6754481;19;2735586;-46
2021/09/25 01:36:01;;;;;;;;;7.86;7.86;;;;;12.94;95.39;99759.41;6799570;19;3443900;-45
2021/09/25 01:38:28;;;;;;;;;7.00;7.00;;;;;12.80;95.73;99762.22;6786141;19;2730382;-46
2021/09/25 01:40:56;;;;;;;;;5.50;5.50;;;;;12.75;96.31;99751.75;6753122;19;2734541;-47
2021/09/25 01:43:24;;;;;;;;;10.00;8.50;;;;;12.86;95.71;99757.25;6752116;19;2759591;-46
2021/09/25 01:45:52;;;;;;;;;10.00;9.00;;;;;12.82;95.58;99761.16;6750705;19;2760609;-45
2021/09/25 01:48:19;;;;;;;;;9.00;7.00;;;;;13.24;93.40;99764.44;6756603;19;2734533;-45
2021/09/25 01:50:47;;;;;;;;;9.00;7.00;;;;;13.32;92.13;99767.53;6756812;19;2735578;-45
2021/09/25 01:53:14;;;;;;;;;9.00;7.00;;;;;13.38;92.32;99767.06;6760209;19;2735599;-45
2021/09/25 01:55:42;;;;;;;;;8.00;7.00;;;;;13.31;93.21;99770.31;6758352;19;2729372;-45
2021/09/25 01:58:10;;;;;;;;;7.00;7.00;;;;;13.30;92.13;99772.16;6758212;19;2727246;-46
2021/09/25 02:00:38;;;;;;;;;10.00;10.00;;;;;13.34;92.86;99770.94;6754324;19;2791826;-46
2021/09/25 02:03:11;;;;;;;;;7.20;7.20;;;;;13.09;93.79;99770.97;6787879;19;2741892;-47
2021/09/25 02:05:39;;;;;;;;;7.00;7.00;;;;;12.63;95.92;99768.75;6793285;19;2727250;-46
2021/09/25 02:08:07;;;;;;;;;9.50;8.00;;;;;12.81;96.16;99774.72;6756118;19;2762669;-46
2021/09/25 02:10:35;;;;;;;;;8.00;8.00;;;;;12.98;94.83;99768.13;6757862;19;2743916;-46
2021/09/25 02:13:02;;;;;;;;;6.50;6.50;;;;;13.31;94.11;99767.63;6759728;19;2733539;-45
2021/09/25 02:15:32;;;;;;;;;6.00;6.00;;;;;13.18;94.41;99776.53;6757622;19;2739761;-45
2021/09/25 02:18:00;;;;;;;;;9.00;7.50;;;;;13.20;94.46;99783.69;6757627;19;2746099;-47
2021/09/25 02:20:28;;;;;;;;;10.00;9.00;;;;;13.20;94.00;99789.06;6755520;19;2764747;-45
2021/09/25 02:22:56;;;;;;;;;7.00;7.00;;;;;13.29;94.05;99783.03;6758025;19;2742910;-45
2021/09/25 02:25:23;;;;;;;;;9.00;9.00;;;;;13.15;94.58;99787.53;6759321;19;2749227;-45
2021/09/25 02:27:51;;;;;;;;;7.00;7.00;;;;;13.28;94.02;99786.72;6756564;19;2737761;-44
2021/09/25 02:30:21;;;;;;;;;9.00;9.00;;;;;13.31;93.55;99781.97;6759337;19;2748086;-45
2021/09/25 02:32:49;;;;;;;;;10.50;10.00;;;;;13.13;94.73;99786.78;6753397;19;2787728;-48
2021/09/25 02:35:20;;;;;;;;;9.00;9.00;;;;;12.93;95.35;99785.50;6757960;19;2760700;-46
2021/09/25 02:37:48;;;;;;;;;9.00;9.00;;;;;12.86;96.38;99791.44;6757781;19;2754335;-47
2021/09/25 02:40:23;;;;;;;;;9.86;7.71;;;;;12.78;96.71;99788.41;6803549;19;3478257;-46
2021/09/25 02:42:51;;;;;;;;;11.00;10.00;;;;;12.88;96.01;99790.34;6796354;19;2782489;-45
2021/09/25 02:45:20;;;;;;;;;11.00;8.60;;;;;13.08;94.79;99796.16;6783749;19;2759532;-45
2021/09/25 02:47:48;;;;;;;;;10.00;9.00;;;;;13.00;94.86;99794.00;6754093;19;2773081;-45
2021/09/25 02:50:18;;;;;;;;;11.67;10.00;;;;;13.07;95.19;99799.84;6753344;19;2784535;-45
2021/09/25 02:52:47;;;;;;;;;10.00;10.00;;;;;12.82;95.92;99800.69;6783746;19;2775172;-45
2021/09/25 02:55:15;;;;;;;;;10.00;10.00;;;;;12.88;96.16;99803.81;6750698;19;2790789;-46
2021/09/25 02:57:43;;;;;;;;;10.50;10.00;;;;;12.90;96.06;99809.97;6752401;19;2790885;-45
2021/09/25 03:00:18;;;;;;;;;13.67;11.00;;;;;12.86;96.33;99811.16;6753525;19;2788733;-45
2021/09/25 03:02:47;;;;;;;;;9.00;9.00;;;;;12.92;95.99;99821.50;6786662;19;2747049;-46
2021/09/25 03:05:16;;;;;;;;;9.00;8.00;;;;;12.97;95.88;99818.50;6753656;19;2753366;-46
2021/09/25 03:07:45;;;;;;;;;13.60;11.60;;;;;12.98;96.11;99820.22;6781041;19;2791826;-45
2021/09/25 03:10:14;;;;;;;;;11.33;10.67;;;;;13.05;95.68;99823.34;6752290;19;3508616;-45
2021/09/25 03:12:42;;;;;;;;;12.67;10.67;;;;;12.86;96.41;99823.75;6784362;19;2791910;-45
2021/09/25 03:15:12;;;;;;;;;14.00;10.00;;;;;13.08;96.35;99834.75;6813640;19;2790829;-45
2021/09/25 03:17:39;;;;;;;;;10.00;9.00;;;;;13.15;95.65;99835.22;6751010;19;2771041;-45
2021/09/25 03:20:09;;;;;;;;;13.67;12.00;;;;;13.07;95.63;99840.28;6752157;19;2791838;-45
2021/09/25 03:22:37;;;;;;;;;12.00;11.00;;;;;13.05;96.21;99845.78;6786537;19;2795013;-46
2021/09/25 03:25:09;;;;;;;;;11.67;11.00;;;;;12.96;96.67;99852.66;6752033;19;2789854;-44
2021/09/25 03:27:39;;;;;;;;;13.67;13.67;;;;;12.93;97.08;99858.28;6784354;19;2802378;-49
2021/09/25 03:30:11;;;;;;;;;11.00;11.00;;;;;12.95;96.71;99855.44;6784904;19;2791838;-46
2021/09/25 03:32:40;;;;;;;;;10.00;10.00;;;;;13.05;96.61;99855.69;6783496;19;2787683;-48
2021/09/25 03:35:08;;;;;;;;;11.50;11.50;;;;;12.98;96.30;99854.38;6760582;19;2798084;-47
2021/09/25 03:37:35;;;;;;;;;13.00;10.00;;;;;12.86;97.30;99865.03;6761156;19;2789738;-47
2021/09/25 03:40:05;;;;;;;;;9.00;9.00;;;;;12.83;97.49;99861.69;6754900;19;2754359;-45
2021/09/25 03:42:33;;;;;;;;;12.50;11.00;;;;;12.94;97.44;99860.00;6751157;19;2789783;-45
2021/09/25 03:45:00;;;;;;;;;11.50;11.00;;;;;12.90;97.47;99852.22;6751179;19;2789751;-45
2021/09/25 03:47:29;;;;;;;;;16.33;14.00;;;;;13.11;96.65;99855.25;6749664;19;3543879;-45
2021/09/25 03:49:56;;;;;;;;;13.50;13.50;;;;;13.04;96.50;99864.75;6794157;19;2781414;-45
2021/09/25 03:52:24;;;;;;;;;11.33;11.33;;;;;12.99;96.88;99856.97;6750816;19;2786646;-45
2021/09/25 03:54:52;;;;;;;;;15.50;13.50;;;;;13.07;96.09;99872.63;6793364;19;2793946;-45
2021/09/25 03:57:20;;;;;;;;;12.00;12.00;;;;;13.10;96.74;99858.94;6749937;19;2798142;-45
2021/09/25 03:59:48;;;;;;;;;17.00;14.50;;;;;12.94;97.10;99861.81;6789924;19;2807454;-46
2021/09/25 04:02:15;;;;;;;;;12.50;12.50;;;;;12.91;97.26;99859.34;6759180;19;2786197;-44
2021/09/25 04:04:44;;;;;;;;;13.33;12.00;;;;;12.92;97.69;99858.38;6751753;19;2783517;-46
2021/09/25 04:07:12;;;;;;;;;14.33;14.00;;;;;12.82;98.48;99855.47;6782429;19;3535550;-46
2021/09/25 04:09:40;;;;;;;;;17.50;16.50;;;;;12.57;99.69;99855.38;6788238;19;2827242;-45
2021/09/25 04:12:08;;;;;;;;;17.67;16.33;;;;;12.54;99.96;99864.53;6749388;19;2801264;-45
2021/09/25 04:14:36;;;;;;;;;14.33;14.33;;;;;12.36;100.00;99863.91;6783250;19;3529392;-45
2021/09/25 04:17:04;;;;;;;;;18.00;17.00;;;;;12.58;100.00;99867.88;6786971;19;2829372;-45
2021/09/25 04:19:33;;;;;;;;;17.00;17.00;;;;;12.47;100.00;99861.38;6749515;19;3562656;-46
2021/09/25 04:22:01;;;;;;;;;15.00;15.00;;;;;12.40;100.00;99862.75;6782719;19;3522017;-45
2021/09/25 04:24:29;;;;;;;;;15.33;15.33;;;;;12.56;100.00;99861.72;6749459;19;3525135;-45
2021/09/25 04:26:57;;;;;;;;;15.00;15.00;;;;;12.74;99.02;99863.16;6754284;19;2808508;-44
2021/09/25 04:29:24;;;;;;;;;16.00;15.00;;;;;12.65;98.56;99869.19;6754124;19;2812711;-44
2021/09/25 04:31:52;;;;;;;;;19.50;17.00;;;;;12.35;100.00;99878.34;6752435;19;2481453;-44
2021/09/25 04:34:20;;;;;;;;;18.00;17.00;;;;;12.22;100.00;99869.34;6755180;19;2825154;-46
2021/09/25 04:36:47;;;;;;;;;15.50;15.00;;;;;12.26;100.00;99878.94;6752499;19;2498092;-45
2021/09/25 04:39:15;;;;;;;;;16.00;16.00;;;;;12.22;100.00;99870.22;6750543;19;3556506;-44
2021/09/25 04:41:44;;;;;;;;;21.33;17.67;;;;;12.30;100.00;99885.88;6750008;19;3570990;-45
2021/09/25 04:44:14;;;;;;;;;20.50;18.50;;;;;12.40;100.00;99886.09;6750250;19;2489791;-45
2021/09/25 04:46:42;;;;;;;;;16.50;16.50;;;;;12.51;100.00;99884.44;6753370;19;2816821;-45
2021/09/25 04:49:10;;;;;;;;;15.50;15.50;;;;;12.60;99.55;99899.13;6751525;19;2489766;-45
2021/09/25 04:51:38;;;;;;;;;19.50;16.00;;;;;12.50;100.00;99904.25;6755019;19;2821118;-44
2021/09/25 04:54:06;;;;;;;;;17.00;17.00;;;;;12.20;100.00;99903.59;6753841;19;2825158;-46
2021/09/25 04:56:34;;;;;;;;;17.67;16.33;;;;;12.32;100.00;99904.59;6749899;19;3549119;-45
2021/09/25 04:59:03;;;;;;;;;17.67;17.67;;;;;12.28;100.00;99910.19;6746253;19;3561650;-45
2021/09/25 05:01:31;;;;;;;;;18.00;17.00;;;;;12.42;100.00;99911.97;6752820;19;2825162;-45
2021/09/25 05:04:02;;;;;;;;;14.00;13.50;;;;;12.72;100.00;99913.63;6758718;19;2785920;-48
2021/09/25 05:06:31;;;;;;;;;16.67;16.00;;;;;12.87;98.64;99914.41;6748744;19;3551175;-46
2021/09/25 05:08:59;;;;;;;;;18.00;17.33;;;;;12.65;99.37;99901.53;6752788;19;2848090;-46
2021/09/25 05:11:27;;;;;;;;;16.00;16.00;;;;;12.47;100.00;99908.97;6784110;19;2498100;-45
2021/09/25 05:13:55;;;;;;;;;20.00;20.00;;;;;12.51;100.00;99913.22;6747829;19;2831452;-44
2021/09/25 05:16:24;;;;;;;;;25.00;22.00;;;;;12.49;100.00;99910.63;6749163;19;2839773;-46
2021/09/25 05:18:52;;;;;;;;;25.50;22.00;;;;;12.43;100.00;99916.41;6746993;19;2841856;-44
2021/09/25 05:21:24;;;;;;;;;24.33;24.33;;;;;12.38;100.00;99915.84;6748901;19;2848146;-45
2021/09/25 05:23:52;;;;;;;;;20.50;19.50;;;;;12.32;100.00;99918.91;6788660;19;2837658;-46
2021/09/25 05:26:22;;;;;;;;;22.67;21.00;;;;;12.33;100.00;99926.06;6756038;19;2852292;-44
2021/09/25 05:28:50;;;;;;;;;16.00;13.00;;;;;11.96;100.00;99931.09;6784659;19;3533471;-46
2021/09/25 05:31:18;;;;;;;;;14.00;14.00;;;;;11.68;100.00;99928.38;6761701;19;2806417;-45
2021/09/25 05:33:46;;;;;;;;;17.00;13.67;;;;;11.71;100.00;99926.34;6754978;19;3542873;-45
2021/09/25 05:36:14;;;;;;;;;15.00;13.50;;;;;11.96;100.00;99931.09;6760656;19;2799158;-44
2021/09/25 05:38:41;;;;;;;;;17.50;14.50;;;;;12.11;100.00;99936.47;6759831;19;2798080;-45
2021/09/25 05:41:10;;;;;;;;;18.00;16.67;;;;;12.28;100.00;99936.25;6755207;19;3560554;-45
2021/09/25 05:43:38;;;;;;;;;16.67;16.67;;;;;12.42;100.00;99941.59;6755414;19;3566792;-46
2021/09/25 05:46:06;;;;;;;;;19.00;18.00;;;;;12.45;100.00;99944.13;6788454;19;2494048;-45
2021/09/25 05:48:34;;;;;;;;;19.00;18.00;;;;;12.72;100.00;99945.94;6750503;19;2827281;-48
2021/09/25 05:51:04;;;;;;;;;19.00;18.00;;;;;12.90;100.00;99950.13;6755144;19;2824133;-50
2021/09/25 05:53:32;;;;;;;;;21.50;20.00;;;;;13.85;95.60;99950.81;6754911;19;2829337;-47
2021/09/25 05:56:02;;;;;;;;;22.00;21.00;;;;;15.17;89.72;99959.19;6751713;19;2840787;-45
2021/09/25 05:58:30;;;;;;;;;23.00;20.50;;;;;18.87;72.13;99961.63;6784830;19;2832465;-48
2021/09/25 06:00:59;;;;;;;;;17.00;15.00;;;;;20.43;64.74;99967.72;6753372;19;2815791;-45
2021/09/25 06:03:27;;;;;;;;;17.00;16.00;;;;;19.02;69.89;99964.81;6753281;19;3556415;-47
2021/09/25 06:05:55;;;;;;;;;16.50;14.00;;;;;17.50;75.57;99956.56;6761168;19;2814802;-48
2021/09/25 06:08:23;;;;;;;;;14.00;14.00;;;;;18.24;75.38;99955.56;6753661;19;3529296;-46
2021/09/25 06:10:52;;;;;;;;;12.33;12.33;;;;;17.77;75.28;99954.19;6783571;19;3528259;-46
2021/09/25 06:13:20;;;;;;;;;13.33;13.33;;;;;15.58;85.92;99956.81;6786238;19;3522138;-46
2021/09/25 06:15:49;;;;;;;;;17.67;15.67;;;;;15.42;89.14;99961.72;6786859;19;3556387;-45
2021/09/25 06:18:17;;;;;;;;;16.67;15.33;;;;;15.46;89.27;99960.50;6752278;19;3554360;-46
2021/09/25 06:20:45;;;;;;;;;14.00;12.50;;;;;15.58;88.54;99970.38;6759710;19;2825202;-45
2021/09/25 06:23:12;;;;;;;;;20.00;19.50;;;;;15.75;88.34;99976.34;6754395;19;2485581;-46
2021/09/25 06:25:40;;;;;;;;;15.50;13.00;;;;;15.90;87.52;99967.00;6761387;19;2810584;-45
2021/09/25 06:28:08;;;;;;;;;25.33;22.00;;;;;15.88;87.79;99965.44;6759325;19;3581405;-45
2021/09/25 06:30:40;;;;;;;;;28.33;23.00;;;;;16.16;86.99;99962.22;6754239;19;2857587;-44
2021/09/25 06:33:10;;;;;;;;;19.50;18.00;;;;;16.43;85.40;99959.13;6783622;19;2831430;-44
2021/09/25 06:35:38;;;;;;;;;16.50;16.00;;;;;16.67;85.05;99958.13;6752763;19;2815796;-45
2021/09/25 06:38:06;;;;;;;;;18.00;16.00;;;;;16.65;84.31;99951.94;6753845;19;2489803;-44
2021/09/25 06:40:34;;;;;;;;;17.00;17.00;;;;;16.73;84.36;99957.59;6752175;19;2825162;-45
2021/09/25 06:43:04;;;;;;;;;20.67;18.33;;;;;16.96;83.04;99968.41;6751920;19;2841855;-47
2021/09/25 06:45:32;;;;;;;;;15.50;15.50;;;;;17.26;82.13;99968.53;6787002;19;2807454;-48
2021/09/25 06:48:01;;;;;;;;;20.00;17.00;;;;;17.14;82.44;99982.25;6750766;19;2833512;-46
2021/09/25 06:50:29;;;;;;;;;17.67;16.00;;;;;17.05;82.76;99978.47;6753119;19;3555381;-46
2021/09/25 06:52:58;;;;;;;;;19.00;19.00;;;;;17.26;82.03;99979.38;6752100;19;2833534;-46
2021/09/25 06:55:26;;;;;;;;;17.00;17.00;;;;;17.43;81.95;99963.50;6750079;19;2831452;-47
2021/09/25 06:57:56;;;;;;;;;21.50;18.50;;;;;17.47;81.70;99971.25;6750509;19;2834572;-44
2021/09/25 07:00:25;;;;;;;;;19.00;18.00;;;;;17.74;79.73;99976.16;6753380;19;2831538;-51
2021/09/25 07:02:53;;;;;;;;;19.00;17.67;;;;;20.91;69.10;99984.88;6755129;19;2830370;-48
2021/09/25 07:05:22;;;;;;;;;19.00;17.00;;;;;22.63;60.46;99994.44;6784789;19;2832554;-47
2021/09/25 07:07:50;;;;;;;;;19.00;17.33;;;;;23.87;56.19;100005.50;6758439;19;3568871;-46
2021/09/25 07:10:19;;;;;;;;;16.00;16.00;;;;;19.38;70.53;99990.50;6755101;19;2481418;-46
2021/09/25 07:12:48;;;;;;;;;22.00;19.33;;;;;18.42;76.02;99991.97;6786445;19;2485612;-46
2021/09/25 07:15:16;;;;;;;;;20.50;17.00;;;;;18.12;77.32;99991.00;6785164;19;2821111;-47
2021/09/25 07:17:44;;;;;;;;;25.00;22.33;;;;;17.92;78.98;99983.72;6756381;19;3585549;-46
2021/09/25 07:20:15;;;;;;;;;21.00;19.50;;;;;18.47;78.42;99992.44;6752303;19;2840794;-46
2021/09/25 07:22:50;;;;;;;;;21.50;19.00;;;;;18.54;77.39;99992.75;6751856;19;2842865;-46
2021/09/25 07:25:20;;;;;;;;;16.00;13.00;;;;;18.46;76.53;99988.00;6757527;19;2803320;-45
2021/09/25 07:27:50;;;;;;;;;22.33;18.00;;;;;18.82;75.55;99996.56;6757321;19;3577240;-47
2021/09/25 07:30:19;;;;;;;;;21.50;18.00;;;;;18.82;75.06;99993.84;6751685;19;2828291;-46
2021/09/25 07:32:48;;;;;;;;;17.00;16.00;;;;;18.84;75.13;99997.28;6751120;19;3560581;-45
2021/09/25 07:35:16;;;;;;;;;16.00;16.00;;;;;18.99;74.18;100001.34;6752573;19;2826299;-45
2021/09/25 07:37:45;;;;;;;;;12.00;11.33;;;;;19.35;72.67;100007.09;6747598;19;3522005;-46
2021/09/25 07:40:13;;;;;;;;;16.00;16.00;;;;;19.66;71.21;100002.38;6785604;19;3550130;-46
2021/09/25 07:42:42;;;;;;;;;18.00;16.33;;;;;20.07;69.79;100004.91;6751347;19;3556383;-47
2021/09/25 07:45:12;;;;;;;;;15.67;14.00;;;;;20.13;69.07;100004.31;6761211;19;2798140;-49
2021/09/25 07:47:40;;;;;;;;;11.00;10.67;;;;;19.57;70.09;100011.41;6791694;19;2792882;-47
2021/09/25 07:50:09;;;;;;;;;11.33;11.33;;;;;19.08;72.04;100010.50;6784309;19;2782488;-46
2021/09/25 07:52:41;;;;;;;;;20.00;15.00;;;;;18.82;73.08;100005.59;6782548;19;3546102;-45
2021/09/25 07:55:12;;;;;;;;;16.67;15.33;;;;;18.57;74.64;100008.78;6755191;19;2489759;-46
2021/09/25 07:57:41;;;;;;;;;17.00;12.67;;;;;18.74;74.20;100016.28;6782463;19;3547001;-45
2021/09/25 08:00:13;;;;;;;;;14.33;14.33;;;;;19.12;72.51;100009.25;6748402;19;3525174;-46
2021/09/25 08:02:42;;;;;;;;;16.00;15.00;;;;;19.41;71.57;100006.53;6786173;19;2483506;-50
2021/09/25 08:05:13;;;;;;;;;14.00;14.00;;;;;20.11;69.17;100014.50;6784295;19;3520976;-47
2021/09/25 08:07:41;;;;;;;;;12.33;12.33;;;;;19.93;68.87;100018.00;6748663;19;2781460;-49
2021/09/25 08:10:13;;;;;;;;;14.67;12.00;;;;;20.26;66.85;100017.59;6783820;19;3520000;-45
2021/09/25 08:12:42;;;;;;;;;13.67;11.67;;;;;20.59;66.65;100024.41;6782756;19;3511601;-47
2021/09/25 08:15:14;;;;;;;;;13.33;12.33;;;;;20.95;64.64;100025.34;6781370;19;2785577;-45
2021/09/25 08:17:45;;;;;;;;;15.67;11.67;;;;;20.51;66.67;100026.97;6781486;19;2788750;-46
2021/09/25 08:20:15;;;;;;;;;7.67;7.67;;;;;21.25;63.94;100031.50;6793556;19;2741840;-45
2021/09/25 08:22:47;;;;;;;;;11.20;10.60;;;;;21.14;64.60;100029.81;6813639;19;2787656;-46
2021/09/25 08:25:18;;;;;;;;;6.60;6.60;;;;;21.23;63.88;100034.38;6780944;19;2737698;-45
2021/09/25 08:27:47;;;;;;;;;9.20;8.20;;;;;21.07;64.10;100031.47;6781117;19;2756486;-45
2021/09/25 08:30:16;;;;;;;;;11.00;11.00;;;;;21.12;64.24;100031.00;6748699;19;3513680;-45
2021/09/25 08:32:46;;;;;;;;;14.50;13.50;;;;;21.10;64.16;100022.97;6783596;19;2788706;-46
2021/09/25 08:35:15;;;;;;;;;21.67;16.67;;;;;21.35;63.17;100024.06;6754010;19;3570986;-45
2021/09/25 08:37:43;;;;;;;;;16.67;13.00;;;;;21.59;62.86;100030.81;6752835;19;2481414;-45
2021/09/25 08:40:14;;;;;;;;;13.67;13.67;;;;;21.17;63.34;100021.34;6780992;19;3528271;-47
2021/09/25 08:42:43;;;;;;;;;11.40;10.00;;;;;21.84;62.99;100029.16;6780410;19;2782448;-45
2021/09/25 08:45:11;;;;;;;;;9.33;9.33;;;;;21.80;62.86;100035.94;6751351;19;2756439;-48
2021/09/25 08:47:41;;;;;;;;;17.00;13.67;;;;;21.82;62.41;100025.72;6781764;19;3535578;-47
2021/09/25 08:50:14;;;;;;;;;8.20;8.20;;;;;21.48;62.84;100027.31;6781302;19;2750169;-45
2021/09/25 08:52:43;;;;;;;;;13.67;10.67;;;;;21.75;61.69;100030.09;6748758;19;2784539;-48
2021/09/25 08:55:13;;;;;;;;;11.00;11.00;;;;;21.85;61.12;100039.06;6780151;19;2783547;-46
2021/09/25 08:57:44;;;;;;;;;12.67;12.67;;;;;21.89;61.27;100040.47;6779001;19;3526208;-46
2021/09/25 09:00:38;;;;;;;;;11.20;11.20;;;;;22.11;60.62;100029.00;6778535;19;2789739;-46
2021/09/25 09:03:38;;;;;;;;;8.33;8.33;;;;;22.13;61.06;100037.91;6747554;19;2748154;-44
2021/09/25 09:06:12;;;;;;;;;11.00;11.00;;;;;22.07;60.99;100035.81;6791001;19;2787672;-46
2021/09/25 09:08:45;;;;;;;;;12.33;12.33;;;;;21.87;60.81;100039.75;6777313;19;3510587;-45
2021/09/25 09:11:14;;;;;;;;;10.00;10.00;;;;;22.19;59.98;100036.44;6780878;19;2780431;-44
2021/09/25 09:13:46;;;;;;;;;11.00;10.00;;;;;22.70;57.69;100039.31;6783055;19;2786618;-45
2021/09/25 09:16:15;;;;;;;;;9.00;9.00;;;;;22.67;58.08;100037.75;6784692;19;2735646;-44
2021/09/25 09:18:49;;;;;;;;;11.60;10.60;;;;;22.60;56.74;100044.91;6809761;19;2783494;-45
2021/09/25 09:21:22;;;;;;;;;10.00;10.00;;;;;22.45;58.05;100030.94;6744988;19;3519966;-47
2021/09/25 09:24:04;;;;;;;;;9.00;9.00;;;;;22.77;57.01;100034.88;6784875;19;2738751;-45
2021/09/25 09:26:39;;;;;;;;;8.33;8.33;;;;;22.47;56.98;100033.53;6782672;19;2739749;-45
2021/09/25 09:29:09;;;;;;;;;7.80;7.80;;;;;22.52;58.22;100037.50;6809201;19;2734572;-45
2021/09/25 09:31:39;;;;;;;;;9.67;9.00;;;;;22.53;56.96;100041.94;6759509;19;2762661;-46
2021/09/25 09:34:09;;;;;;;;;9.80;9.80;;;;;22.98;56.44;100038.06;6813171;19;2802282;-49
2021/09/25 09:36:42;;;;;;;;;10.00;10.00;;;;;22.44;56.48;100036.59;6748049;19;2782467;-47
2021/09/25 09:39:15;;;;;;;;;12.00;11.00;;;;;22.98;56.57;100049.00;6790568;19;2793959;-49
2021/09/25 09:41:49;;;;;;;;;10.00;9.00;;;;;22.68;58.84;100041.34;6781400;19;3485557;-47
2021/09/25 09:44:29;;;;;;;;;15.00;11.00;;;;;22.63;58.06;100039.09;6789049;19;2789743;-46
2021/09/25 09:47:02;;;;;;;;;10.67;10.00;;;;;23.16;56.55;100040.69;6792118;19;2783497;-49
2021/09/25 09:49:36;;;;;;;;;7.60;7.60;;;;;22.70;56.29;100042.91;6814955;19;2728291;-45
2021/09/25 09:52:06;;;;;;;;;10.67;10.67;;;;;22.94;57.01;100041.28;6780731;19;3517839;-47
2021/09/25 09:54:47;;;;;;;;;10.67;10.33;;;;;23.24;56.92;100042.59;6789834;19;2791871;-48
2021/09/25 09:57:19;;;;;;;;;11.00;11.00;;;;;23.49;55.44;100046.25;6783720;19;2481426;-46
2021/09/25 09:59:50;;;;;;;;;10.00;10.00;;;;;23.45;56.06;100045.72;6779869;19;2774119;-45
2021/09/25 10:02:18;;;;;;;;;8.00;8.00;;;;;23.37;54.82;100034.72;6780824;19;2739753;-47
2021/09/25 10:04:48;;;;;;;;;7.80;7.80;;;;;23.38;54.01;100043.81;6807749;19;2750209;-47
2021/09/25 10:07:17;;;;;;;;;11.00;8.00;;;;;23.23;53.25;100039.00;6746027;19;3476174;-45
2021/09/25 10:09:47;;;;;;;;;8.00;8.00;;;;;23.49;53.56;100037.19;6810828;19;2750161;-46
2021/09/25 10:12:17;;;;;;;;;8.20;8.00;;;;;23.39;53.20;100032.69;6784270;19;2734549;-49
2021/09/25 10:14:47;;;;;;;;;8.00;7.33;;;;;23.61;53.11;100033.91;6788306;19;2741899;-50
2021/09/25 10:17:17;;;;;;;;;8.40;8.40;;;;;24.27;52.06;100045.72;6816019;19;2754340;-50
2021/09/25 10:19:47;;;;;;;;;8.60;7.40;;;;;23.57;52.38;100042.66;6783906;19;2741900;-48
2021/09/25 10:22:31;;;;;;;;;6.00;6.00;;;;;23.84;52.53;100034.13;6753341;19;2741832;-50
2021/09/25 10:25:07;;;;;;;;;7.20;7.20;;;;;23.72;52.60;100045.59;6817237;19;2743951;-48
2021/09/25 10:27:45;;;;;;;;;7.00;7.00;;;;;23.51;51.82;100037.84;6783261;19;2735579;-44
2021/09/25 10:30:15;;;;;;;;;8.40;8.40;;;;;23.38;52.37;100041.94;6819128;19;2750177;-47
2021/09/25 10:32:53;;;;;;;;;9.20;9.20;;;;;23.94;52.10;100039.44;6782296;19;2771054;-47
2021/09/25 10:35:28;;;;;;;;;6.33;6.33;;;;;24.02;51.27;100046.81;6809316;19;3435555;-47
2021/09/25 10:38:02;;;;;;;;;6.00;5.00;;;;;23.45;52.40;100037.47;6792777;19;2733499;-47
2021/09/25 10:40:51;;;;;;;;;7.00;7.00;;;;;23.61;51.84;100044.03;6817072;19;2732510;-47
2021/09/25 10:43:26;;;;;;;;;7.00;7.00;;;;;24.13;51.26;100038.22;6816046;19;2739793;-46
2021/09/25 10:46:00;;;;;;;;;8.80;8.20;;;;;23.81;51.71;100042.69;6782683;19;2749144;-46
2021/09/25 10:48:30;;;;;;;;;7.00;7.00;;;;;23.64;52.23;100029.97;6781257;19;2741868;-46
2021/09/25 10:51:11;;;;;;;;;7.80;6.80;;;;;24.51;50.71;100030.25;6784100;19;2736672;-44
2021/09/25 10:53:44;;;;;;;;;7.60;5.60;;;;;23.82;50.56;100033.44;6817513;19;2731460;-46
2021/09/25 10:56:23;;;;;;;;;17.00;15.00;;;;;23.34;52.08;100026.00;6789458;19;3532426;-46
2021/09/25 10:59:06;;;;;;;;;12.00;12.00;;;;;23.94;51.68;100033.09;6787652;19;3516829;-48
2021/09/25 11:01:40;;;;;;;;;9.67;8.00;;;;;24.35;50.44;100033.03;6790930;19;2739749;-51
2021/09/25 11:04:22;;;;;;;;;9.00;7.67;;;;;23.85;50.79;100034.97;6801266;19;2751234;-48
2021/09/25 11:06:56;;;;;;;;;8.00;8.00;;;;;24.05;51.43;100035.47;6787970;19;2737734;-47
2021/09/25 11:09:33;;;;;;;;;6.60;6.60;;;;;23.95;51.97;100034.81;6817349;19;2745998;-47
2021/09/25 11:12:11;;;;;;;;;8.00;8.00;;;;;24.58;50.86;100035.91;6754729;19;2750205;-47
2021/09/25 11:14:51;;;;;;;;;17.00;15.00;;;;;24.70;49.26;100026.28;6785361;19;2815823;-48
2021/09/25 11:17:21;;;;;;;;;7.80;7.80;;;;;24.90;49.52;100029.44;6785312;19;2739772;-47